Geyserville, CA (95441)

6:49 AM PDT on April 01, 2015 (GMT -0700)
Geyserville | | Change Station
CLOSE
Current Station
Personal Weather Station
Location: Geyserville, CA
Elevation: 207 ft
Nearby Weather Stations

Elev 207 ft 38.72 °N, 122.91 °W | Updated 5 seconds ago

Clear
Clear
43.7 °F
Feels Like 42 °F
N
3.1
Wind Variable Wind from WNW
Gusts 9.5 mph

Today
High -- | Low -- °F
--% Chance of Precip.
Yesterday
High -- | Low -- °F
Precip. -- in
6:56 AM 7:34 PM
Waxing Gibbous, 92% visible
Pressure 30.15 in
Visibility 10.0 miles
Clouds Clear
Windchill 42 °F
Dew Point 34 °F
Humidity 69%
Rainfall 0.00 in
Snow Depth Not available.
UV 0 out of 12
Pollen 10.30 out of 12
Air Quality Not available.
Flu Activity Not available.
METAR KSTS 011253Z AUTO 35004KT 10SM CLR 08/00 A3016 RMK AO2 SLP208 T00830000

More Conditions Fewer Conditions

Pressure 30.15 in
Visibility 10.0 miles
Clouds Clear
Windchill 42 °F
Dew Point 34 °F
Humidity 69%
Rainfall 0.00 in
Snow Depth Not available.
UV 0 out of 12
Pollen 10.30 out of 12
Air Quality Not available.
Flu Activity Not available.
METAR KSTS 011253Z AUTO 35004KT 10SM CLR 08/00 A3016 RMK AO2 SLP208 T00830000

More Conditions Fewer Conditions

10-Day Weather Forecast

Almanac

Astronomy

Apr. 01, 2015 Rise Set
Actual Time
Civil Twilight
Nautical Twilight
Astronomical Twilight
Moon
Length of Visible Light
Length of Day
Tomorrow will be .
, % of the Moon is Illuminated

Today's Extremes

State Highs State Lows

Community

WunderPhotos

Upload Photos

1,809,957 photos uploaded!

WunderBlogs® & News

Nearby

Air Quality

  Air Quality AQ Index Pollutant
Not available.

Snow Depth

Station Depth Elevation

Earthquake Activity

City Distance Mag. Time & Date
Minimum magnitude displayed is 2.5.

Coastal Water Temperatures

Place Temperature

Stations

Nearby Weather Stations

Station Location Temp. Windchill Dew Point Humidity Wind Precip. Elev Updated Type